sensor_id;sensor_type;location;lat;lon;timestamp;P1;durP1;ratioP1;P2;durP2;ratioP2
50161;SDS011;36061;48.116;11.612;2022-12-18T00:01:43;23.27;;;10.60;;
50161;SDS011;36061;48.116;11.612;2022-12-18T00:04:23;20.77;;;9.77;;
50161;SDS011;36061;48.116;11.612;2022-12-18T00:06:50;20.77;;;9.60;;
50161;SDS011;36061;48.116;11.612;2022-12-18T00:09:16;20.77;;;10.60;;
50161;SDS011;36061;48.116;11.612;2022-12-18T00:11:42;23.33;;;10.87;;
50161;SDS011;36061;48.116;11.612;2022-12-18T00:14:08;24.50;;;10.57;;
50161;SDS011;36061;48.116;11.612;2022-12-18T00:16:36;30.23;;;11.87;;
50161;SDS011;36061;48.116;11.612;2022-12-18T00:19:02;24.83;;;10.83;;
50161;SDS011;36061;48.116;11.612;2022-12-18T00:21:29;32.00;;;12.00;;
50161;SDS011;36061;48.116;11.612;2022-12-18T00:23:58;28.27;;;11.30;;
50161;SDS011;36061;48.116;11.612;2022-12-18T00:26:25;28.13;;;13.03;;
50161;SDS011;36061;48.116;11.612;2022-12-18T00:29:03;28.73;;;12.33;;
50161;SDS011;36061;48.116;11.612;2022-12-18T00:31:35;29.60;;;10.97;;
50161;SDS011;36061;48.116;11.612;2022-12-18T00:34:02;24.27;;;11.37;;
50161;SDS011;36061;48.116;11.612;2022-12-18T00:36:29;27.20;;;12.20;;
50161;SDS011;36061;48.116;11.612;2022-12-18T00:39:00;27.57;;;11.07;;
50161;SDS011;36061;48.116;11.612;2022-12-18T00:41:28;27.63;;;10.47;;
50161;SDS011;36061;48.116;11.612;2022-12-18T00:44:13;29.43;;;11.90;;
50161;SDS011;36061;48.116;11.612;2022-12-18T00:46:41;20.93;;;9.10;;
50161;SDS011;36061;48.116;11.612;2022-12-18T00:49:08;24.93;;;10.27;;
50161;SDS011;36061;48.116;11.612;2022-12-18T00:51:38;26.97;;;11.10;;
50161;SDS011;36061;48.116;11.612;2022-12-18T00:54:04;23.63;;;9.33;;
50161;SDS011;36061;48.116;11.612;2022-12-18T00:56:30;21.43;;;9.53;;
50161;SDS011;36061;48.116;11.612;2022-12-18T00:58:56;21.80;;;9.27;;
50161;SDS011;36061;48.116;11.612;2022-12-18T01:01:22;23.37;;;9.37;;
50161;SDS011;36061;48.116;11.612;2022-12-18T01:03:48;28.70;;;10.30;;
50161;SDS011;36061;48.116;11.612;2022-12-18T01:06:15;20.83;;;8.97;;
50161;SDS011;36061;48.116;11.612;2022-12-18T01:08:41;28.20;;;12.27;;
50161;SDS011;36061;48.116;11.612;2022-12-18T01:11:12;21.67;;;9.20;;
50161;SDS011;36061;48.116;11.612;2022-12-18T01:13:40;27.30;;;10.90;;
50161;SDS011;36061;48.116;11.612;2022-12-18T01:16:06;24.33;;;10.17;;
50161;SDS011;36061;48.116;11.612;2022-12-18T01:18:34;25.97;;;11.33;;
50161;SDS011;36061;48.116;11.612;2022-12-18T01:21:00;28.00;;;10.77;;
50161;SDS011;36061;48.116;11.612;2022-12-18T01:23:26;26.23;;;9.63;;
50161;SDS011;36061;48.116;11.612;2022-12-18T01:25:52;23.30;;;9.20;;
50161;SDS011;36061;48.116;11.612;2022-12-18T01:28:17;23.33;;;11.07;;
50161;SDS011;36061;48.116;11.612;2022-12-18T01:30:43;22.27;;;10.30;;
50161;SDS011;36061;48.116;11.612;2022-12-18T01:33:09;26.40;;;11.70;;
50161;SDS011;36061;48.116;11.612;2022-12-18T01:35:39;24.07;;;11.00;;
50161;SDS011;36061;48.116;11.612;2022-12-18T01:38:06;20.80;;;10.73;;
50161;SDS011;36061;48.116;11.612;2022-12-18T01:40:33;25.67;;;11.10;;
50161;SDS011;36061;48.116;11.612;2022-12-18T01:43:00;25.87;;;12.07;;
50161;SDS011;36061;48.116;11.612;2022-12-18T01:45:30;19.23;;;9.40;;
50161;SDS011;36061;48.116;11.612;2022-12-18T01:48:05;26.47;;;10.33;;
50161;SDS011;36061;48.116;11.612;2022-12-18T01:55:29;24.30;;;10.23;;
50161;SDS011;36061;48.116;11.612;2022-12-18T01:57:57;28.80;;;11.30;;
50161;SDS011;36061;48.116;11.612;2022-12-18T02:00:25;25.93;;;11.80;;
50161;SDS011;36061;48.116;11.612;2022-12-18T02:02:52;24.73;;;12.27;;
50161;SDS011;36061;48.116;11.612;2022-12-18T02:08:27;30.43;;;10.63;;
50161;SDS011;36061;48.116;11.612;2022-12-18T02:13:38;23.27;;;10.43;;
50161;SDS011;36061;48.116;11.612;2022-12-18T02:16:40;27.63;;;11.23;;
50161;SDS011;36061;48.116;11.612;2022-12-18T02:19:27;27.47;;;12.33;;
50161;SDS011;36061;48.116;11.612;2022-12-18T02:24:45;27.83;;;11.13;;
50161;SDS011;36061;48.116;11.612;2022-12-18T02:27:26;26.67;;;11.03;;
50161;SDS011;36061;48.116;11.612;2022-12-18T02:29:55;29.80;;;13.03;;
50161;SDS011;36061;48.116;11.612;2022-12-18T02:32:26;25.30;;;11.00;;
50161;SDS011;36061;48.116;11.612;2022-12-18T02:34:56;29.17;;;12.97;;
50161;SDS011;36061;48.116;11.612;2022-12-18T02:37:24;32.17;;;13.27;;
50161;SDS011;36061;48.116;11.612;2022-12-18T02:39:53;23.33;;;10.77;;
50161;SDS011;36061;48.116;11.612;2022-12-18T02:42:22;26.70;;;12.87;;
50161;SDS011;36061;48.116;11.612;2022-12-18T02:44:49;25.13;;;11.97;;
50161;SDS011;36061;48.116;11.612;2022-12-18T02:47:20;23.87;;;10.93;;
50161;SDS011;36061;48.116;11.612;2022-12-18T02:55:45;24.80;;;9.90;;
50161;SDS011;36061;48.116;11.612;2022-12-18T03:03:59;24.07;;;11.97;;
50161;SDS011;36061;48.116;11.612;2022-12-18T03:06:35;28.93;;;11.53;;
50161;SDS011;36061;48.116;11.612;2022-12-18T03:09:10;27.17;;;11.57;;
50161;SDS011;36061;48.116;11.612;2022-12-18T03:11:41;32.07;;;13.10;;
50161;SDS011;36061;48.116;11.612;2022-12-18T03:14:29;29.30;;;11.53;;
50161;SDS011;36061;48.116;11.612;2022-12-18T03:16:58;25.17;;;11.70;;
50161;SDS011;36061;48.116;11.612;2022-12-18T03:19:28;38.90;;;14.17;;
50161;SDS011;36061;48.116;11.612;2022-12-18T03:21:57;27.43;;;10.57;;
50161;SDS011;36061;48.116;11.612;2022-12-18T03:24:32;28.40;;;11.77;;
50161;SDS011;36061;48.116;11.612;2022-12-18T03:27:02;30.00;;;12.33;;
50161;SDS011;36061;48.116;11.612;2022-12-18T03:29:35;24.53;;;10.33;;
50161;SDS011;36061;48.116;11.612;2022-12-18T03:32:21;27.43;;;12.50;;
50161;SDS011;36061;48.116;11.612;2022-12-18T03:34:53;28.13;;;11.87;;
50161;SDS011;36061;48.116;11.612;2022-12-18T03:37:27;27.10;;;10.73;;
50161;SDS011;36061;48.116;11.612;2022-12-18T03:39:53;33.70;;;13.07;;
50161;SDS011;36061;48.116;11.612;2022-12-18T03:45:06;31.73;;;12.00;;
50161;SDS011;36061;48.116;11.612;2022-12-18T03:47:40;26.70;;;12.40;;
50161;SDS011;36061;48.116;11.612;2022-12-18T03:55:40;22.43;;;10.97;;
50161;SDS011;36061;48.116;11.612;2022-12-18T03:58:08;26.93;;;12.00;;
50161;SDS011;36061;48.116;11.612;2022-12-18T04:00:49;29.60;;;12.97;;
50161;SDS011;36061;48.116;11.612;2022-12-18T04:03:18;32.03;;;11.50;;
50161;SDS011;36061;48.116;11.612;2022-12-18T04:05:47;31.43;;;13.60;;
50161;SDS011;36061;48.116;11.612;2022-12-18T04:08:18;30.83;;;12.23;;
50161;SDS011;36061;48.116;11.612;2022-12-18T04:10:53;31.43;;;12.57;;
50161;SDS011;36061;48.116;11.612;2022-12-18T04:13:23;28.97;;;11.23;;
50161;SDS011;36061;48.116;11.612;2022-12-18T04:15:55;24.93;;;11.30;;
50161;SDS011;36061;48.116;11.612;2022-12-18T04:18:22;26.20;;;12.43;;
50161;SDS011;36061;48.116;11.612;2022-12-18T04:20:48;31.00;;;13.60;;
50161;SDS011;36061;48.116;11.612;2022-12-18T04:23:16;27.37;;;11.87;;
50161;SDS011;36061;48.116;11.612;2022-12-18T04:25:42;27.77;;;12.83;;
50161;SDS011;36061;48.116;11.612;2022-12-18T04:28:11;26.80;;;11.10;;
50161;SDS011;36061;48.116;11.612;2022-12-18T04:30:37;27.23;;;10.90;;
50161;SDS011;36061;48.116;11.612;2022-12-18T04:33:07;27.97;;;10.93;;
50161;SDS011;36061;48.116;11.612;2022-12-18T04:35:38;21.87;;;10.20;;
50161;SDS011;36061;48.116;11.612;2022-12-18T04:38:06;26.43;;;11.03;;
50161;SDS011;36061;48.116;11.612;2022-12-18T04:40:35;26.83;;;11.77;;
50161;SDS011;36061;48.116;11.612;2022-12-18T04:43:05;23.93;;;9.40;;
50161;SDS011;36061;48.116;11.612;2022-12-18T04:45:31;26.30;;;10.00;;
50161;SDS011;36061;48.116;11.612;2022-12-18T04:48:01;27.37;;;10.83;;
50161;SDS011;36061;48.116;11.612;2022-12-18T04:50:27;23.80;;;10.10;;
50161;SDS011;36061;48.116;11.612;2022-12-18T04:52:53;23.37;;;11.70;;
50161;SDS011;36061;48.116;11.612;2022-12-18T04:55:19;23.47;;;9.07;;
50161;SDS011;36061;48.116;11.612;2022-12-18T04:57:46;24.30;;;9.00;;
50161;SDS011;36061;48.116;11.612;2022-12-18T05:00:11;23.33;;;9.40;;
50161;SDS011;36061;48.116;11.612;2022-12-18T05:02:38;26.63;;;10.60;;
50161;SDS011;36061;48.116;11.612;2022-12-18T05:05:03;22.67;;;10.20;;
50161;SDS011;36061;48.116;11.612;2022-12-18T05:07:30;19.73;;;9.00;;
50161;SDS011;36061;48.116;11.612;2022-12-18T05:09:55;21.00;;;9.60;;
50161;SDS011;36061;48.116;11.612;2022-12-18T05:12:21;20.00;;;9.13;;
50161;SDS011;36061;48.116;11.612;2022-12-18T05:14:47;25.97;;;10.90;;
50161;SDS011;36061;48.116;11.612;2022-12-18T05:17:13;21.37;;;10.97;;
50161;SDS011;36061;48.116;11.612;2022-12-18T05:19:38;19.13;;;9.70;;
50161;SDS011;36061;48.116;11.612;2022-12-18T05:22:04;21.77;;;8.83;;
50161;SDS011;36061;48.116;11.612;2022-12-18T05:24:30;20.83;;;8.67;;
50161;SDS011;36061;48.116;11.612;2022-12-18T05:26:56;17.17;;;8.77;;
50161;SDS011;36061;48.116;11.612;2022-12-18T05:29:21;27.07;;;9.43;;
50161;SDS011;36061;48.116;11.612;2022-12-18T05:31:47;24.63;;;10.43;;
50161;SDS011;36061;48.116;11.612;2022-12-18T05:34:13;18.33;;;8.90;;
50161;SDS011;36061;48.116;11.612;2022-12-18T05:36:39;26.30;;;10.77;;
50161;SDS011;36061;48.116;11.612;2022-12-18T05:39:05;21.93;;;9.60;;
50161;SDS011;36061;48.116;11.612;2022-12-18T05:41:31;27.07;;;11.53;;
50161;SDS011;36061;48.116;11.612;2022-12-18T05:43:57;21.20;;;9.87;;
50161;SDS011;36061;48.116;11.612;2022-12-18T05:46:23;23.10;;;9.27;;
50161;SDS011;36061;48.116;11.612;2022-12-18T05:48:49;18.57;;;8.97;;
50161;SDS011;36061;48.116;11.612;2022-12-18T05:51:16;21.63;;;9.40;;
50161;SDS011;36061;48.116;11.612;2022-12-18T05:53:44;23.40;;;10.17;;
50161;SDS011;36061;48.116;11.612;2022-12-18T05:56:11;26.70;;;10.53;;
50161;SDS011;36061;48.116;11.612;2022-12-18T05:58:39;22.77;;;9.77;;
50161;SDS011;36061;48.116;11.612;2022-12-18T06:01:19;20.00;;;9.70;;
50161;SDS011;36061;48.116;11.612;2022-12-18T06:03:47;22.77;;;9.97;;
50161;SDS011;36061;48.116;11.612;2022-12-18T06:06:17;18.23;;;9.60;;
50161;SDS011;36061;48.116;11.612;2022-12-18T06:08:44;23.63;;;9.57;;
50161;SDS011;36061;48.116;11.612;2022-12-18T06:11:10;21.30;;;9.40;;
50161;SDS011;36061;48.116;11.612;2022-12-18T06:13:37;21.67;;;10.20;;
50161;SDS011;36061;48.116;11.612;2022-12-18T06:16:06;24.13;;;9.67;;
50161;SDS011;36061;48.116;11.612;2022-12-18T06:18:33;17.73;;;9.17;;
50161;SDS011;36061;48.116;11.612;2022-12-18T06:21:00;23.17;;;8.83;;
50161;SDS011;36061;48.116;11.612;2022-12-18T06:23:25;18.67;;;8.47;;
50161;SDS011;36061;48.116;11.612;2022-12-18T06:25:52;21.43;;;9.23;;
50161;SDS011;36061;48.116;11.612;2022-12-18T06:28:17;19.20;;;8.90;;
50161;SDS011;36061;48.116;11.612;2022-12-18T06:30:44;23.53;;;10.10;;
50161;SDS011;36061;48.116;11.612;2022-12-18T06:33:10;21.80;;;8.93;;
50161;SDS011;36061;48.116;11.612;2022-12-18T06:35:36;19.63;;;9.23;;
50161;SDS011;36061;48.116;11.612;2022-12-18T06:38:02;19.13;;;8.27;;
50161;SDS011;36061;48.116;11.612;2022-12-18T06:40:29;24.63;;;8.60;;
50161;SDS011;36061;48.116;11.612;2022-12-18T06:42:54;17.63;;;7.87;;
50161;SDS011;36061;48.116;11.612;2022-12-18T06:45:20;19.60;;;9.20;;
50161;SDS011;36061;48.116;11.612;2022-12-18T06:47:46;18.23;;;9.37;;
50161;SDS011;36061;48.116;11.612;2022-12-18T06:50:12;23.53;;;10.10;;
50161;SDS011;36061;48.116;11.612;2022-12-18T06:52:38;21.03;;;9.17;;
50161;SDS011;36061;48.116;11.612;2022-12-18T06:55:06;21.67;;;9.63;;
50161;SDS011;36061;48.116;11.612;2022-12-18T06:57:36;18.30;;;8.13;;
50161;SDS011;36061;48.116;11.612;2022-12-18T07:00:03;24.27;;;8.87;;
50161;SDS011;36061;48.116;11.612;2022-12-18T07:02:30;22.13;;;8.57;;
50161;SDS011;36061;48.116;11.612;2022-12-18T07:04:57;20.53;;;8.43;;
50161;SDS011;36061;48.116;11.612;2022-12-18T07:07:23;24.30;;;9.23;;
50161;SDS011;36061;48.116;11.612;2022-12-18T07:09:49;22.17;;;10.03;;
50161;SDS011;36061;48.116;11.612;2022-12-18T07:12:15;20.30;;;9.00;;
50161;SDS011;36061;48.116;11.612;2022-12-18T07:14:41;18.87;;;9.37;;
50161;SDS011;36061;48.116;11.612;2022-12-18T07:17:06;21.30;;;9.83;;
50161;SDS011;36061;48.116;11.612;2022-12-18T07:19:32;18.30;;;8.27;;
50161;SDS011;36061;48.116;11.612;2022-12-18T07:21:58;18.80;;;8.73;;
50161;SDS011;36061;48.116;11.612;2022-12-18T07:24:24;17.73;;;8.33;;
50161;SDS011;36061;48.116;11.612;2022-12-18T07:26:50;17.87;;;8.07;;
50161;SDS011;36061;48.116;11.612;2022-12-18T07:29:16;15.07;;;8.03;;
50161;SDS011;36061;48.116;11.612;2022-12-18T07:31:42;18.67;;;8.87;;
50161;SDS011;36061;48.116;11.612;2022-12-18T07:34:11;19.90;;;9.40;;
50161;SDS011;36061;48.116;11.612;2022-12-18T07:36:38;16.43;;;7.13;;
50161;SDS011;36061;48.116;11.612;2022-12-18T07:39:04;21.80;;;9.50;;
50161;SDS011;36061;48.116;11.612;2022-12-18T07:41:30;20.13;;;8.67;;
50161;SDS011;36061;48.116;11.612;2022-12-18T07:43:58;20.83;;;8.17;;
50161;SDS011;36061;48.116;11.612;2022-12-18T07:46:24;20.80;;;9.30;;
50161;SDS011;36061;48.116;11.612;2022-12-18T07:48:50;16.77;;;8.47;;
50161;SDS011;36061;48.116;11.612;2022-12-18T07:51:15;19.03;;;8.00;;
50161;SDS011;36061;48.116;11.612;2022-12-18T07:53:42;14.83;;;8.00;;
50161;SDS011;36061;48.116;11.612;2022-12-18T07:56:09;20.13;;;9.20;;
50161;SDS011;36061;48.116;11.612;2022-12-18T07:58:36;23.03;;;8.77;;
50161;SDS011;36061;48.116;11.612;2022-12-18T08:01:08;18.30;;;7.77;;
50161;SDS011;36061;48.116;11.612;2022-12-18T08:03:36;19.13;;;9.03;;
50161;SDS011;36061;48.116;11.612;2022-12-18T08:06:03;22.30;;;9.00;;
50161;SDS011;36061;48.116;11.612;2022-12-18T08:08:30;19.23;;;7.97;;
50161;SDS011;36061;48.116;11.612;2022-12-18T08:10:56;19.30;;;8.90;;
50161;SDS011;36061;48.116;11.612;2022-12-18T08:13:23;18.83;;;8.10;;
50161;SDS011;36061;48.116;11.612;2022-12-18T08:15:59;21.97;;;8.97;;
50161;SDS011;36061;48.116;11.612;2022-12-18T08:18:29;17.40;;;7.53;;
50161;SDS011;36061;48.116;11.612;2022-12-18T08:20:57;14.80;;;7.37;;
50161;SDS011;36061;48.116;11.612;2022-12-18T08:23:32;16.87;;;9.33;;
50161;SDS011;36061;48.116;11.612;2022-12-18T08:25:58;22.83;;;7.87;;
50161;SDS011;36061;48.116;11.612;2022-12-18T08:28:23;17.90;;;8.03;;
50161;SDS011;36061;48.116;11.612;2022-12-18T08:30:51;17.80;;;7.50;;
50161;SDS011;36061;48.116;11.612;2022-12-18T08:33:17;16.40;;;7.97;;
50161;SDS011;36061;48.116;11.612;2022-12-18T08:35:43;22.53;;;9.37;;
50161;SDS011;36061;48.116;11.612;2022-12-18T08:38:09;18.90;;;8.43;;
50161;SDS011;36061;48.116;11.612;2022-12-18T08:40:34;18.30;;;7.77;;
50161;SDS011;36061;48.116;11.612;2022-12-18T08:43:00;19.93;;;7.90;;
50161;SDS011;36061;48.116;11.612;2022-12-18T08:45:44;15.30;;;7.60;;
50161;SDS011;36061;48.116;11.612;2022-12-18T08:48:10;18.07;;;8.70;;
50161;SDS011;36061;48.116;11.612;2022-12-18T08:50:36;17.70;;;9.57;;
50161;SDS011;36061;48.116;11.612;2022-12-18T08:53:01;15.97;;;7.60;;
50161;SDS011;36061;48.116;11.612;2022-12-18T08:55:27;20.57;;;9.00;;
50161;SDS011;36061;48.116;11.612;2022-12-18T08:57:53;17.80;;;6.73;;
50161;SDS011;36061;48.116;11.612;2022-12-18T09:00:19;13.23;;;6.57;;
50161;SDS011;36061;48.116;11.612;2022-12-18T09:02:45;19.27;;;8.67;;
50161;SDS011;36061;48.116;11.612;2022-12-18T09:05:11;15.63;;;7.97;;
50161;SDS011;36061;48.116;11.612;2022-12-18T09:07:36;18.00;;;7.37;;
50161;SDS011;36061;48.116;11.612;2022-12-18T09:10:02;15.63;;;8.30;;
50161;SDS011;36061;48.116;11.612;2022-12-18T09:12:29;18.87;;;9.03;;
50161;SDS011;36061;48.116;11.612;2022-12-18T09:14:54;19.57;;;8.10;;
50161;SDS011;36061;48.116;11.612;2022-12-18T09:17:21;15.60;;;7.33;;
50161;SDS011;36061;48.116;11.612;2022-12-18T09:19:47;18.47;;;8.73;;
50161;SDS011;36061;48.116;11.612;2022-12-18T09:22:13;19.00;;;8.63;;
50161;SDS011;36061;48.116;11.612;2022-12-18T09:24:38;17.27;;;8.57;;
50161;SDS011;36061;48.116;11.612;2022-12-18T09:27:04;14.70;;;6.63;;
50161;SDS011;36061;48.116;11.612;2022-12-18T09:29:30;24.63;;;8.53;;
50161;SDS011;36061;48.116;11.612;2022-12-18T09:31:57;18.03;;;7.23;;
50161;SDS011;36061;48.116;11.612;2022-12-18T09:34:22;16.77;;;7.70;;
50161;SDS011;36061;48.116;11.612;2022-12-18T09:36:48;16.80;;;6.87;;
50161;SDS011;36061;48.116;11.612;2022-12-18T09:39:14;21.37;;;8.97;;
50161;SDS011;36061;48.116;11.612;2022-12-18T09:41:45;19.40;;;7.73;;
50161;SDS011;36061;48.116;11.612;2022-12-18T09:49:32;15.70;;;7.27;;
50161;SDS011;36061;48.116;11.612;2022-12-18T09:52:03;18.37;;;7.57;;
50161;SDS011;36061;48.116;11.612;2022-12-18T09:54:43;11.40;;;6.40;;
50161;SDS011;36061;48.116;11.612;2022-12-18T09:57:29;16.53;;;7.60;;
50161;SDS011;36061;48.116;11.612;2022-12-18T10:00:11;21.53;;;8.63;;
50161;SDS011;36061;48.116;11.612;2022-12-18T10:02:43;18.30;;;7.83;;
50161;SDS011;36061;48.116;11.612;2022-12-18T10:05:16;19.17;;;8.03;;
50161;SDS011;36061;48.116;11.612;2022-12-18T10:10:40;13.83;;;7.40;;
50161;SDS011;36061;48.116;11.612;2022-12-18T10:24:08;14.53;;;7.00;;
50161;SDS011;36061;48.116;11.612;2022-12-18T10:26:55;15.20;;;6.77;;
50161;SDS011;36061;48.116;11.612;2022-12-18T10:29:39;15.27;;;6.87;;
50161;SDS011;36061;48.116;11.612;2022-12-18T10:32:06;19.63;;;8.27;;
50161;SDS011;36061;48.116;11.612;2022-12-18T10:34:34;16.00;;;7.80;;
50161;SDS011;36061;48.116;11.612;2022-12-18T10:37:00;14.03;;;6.87;;
50161;SDS011;36061;48.116;11.612;2022-12-18T10:39:35;16.80;;;7.67;;
50161;SDS011;36061;48.116;11.612;2022-12-18T10:42:09;19.03;;;8.33;;
50161;SDS011;36061;48.116;11.612;2022-12-18T10:44:39;16.07;;;7.83;;
50161;SDS011;36061;48.116;11.612;2022-12-18T10:47:06;15.53;;;7.73;;
50161;SDS011;36061;48.116;11.612;2022-12-18T10:49:40;20.77;;;8.60;;
50161;SDS011;36061;48.116;11.612;2022-12-18T10:54:59;15.57;;;8.10;;
50161;SDS011;36061;48.116;11.612;2022-12-18T10:59:56;14.50;;;7.30;;
50161;SDS011;36061;48.116;11.612;2022-12-18T11:02:33;16.97;;;7.27;;
50161;SDS011;36061;48.116;11.612;2022-12-18T11:05:01;21.95;;;10.73;;
50161;SDS011;36061;48.116;11.612;2022-12-18T11:10:32;21.27;;;8.07;;
50161;SDS011;36061;48.116;11.612;2022-12-18T11:15:44;15.97;;;6.87;;
50161;SDS011;36061;48.116;11.612;2022-12-18T11:18:20;16.47;;;8.43;;
50161;SDS011;36061;48.116;11.612;2022-12-18T11:20:56;15.37;;;7.03;;
50161;SDS011;36061;48.116;11.612;2022-12-18T11:23:31;19.50;;;7.80;;
50161;SDS011;36061;48.116;11.612;2022-12-18T11:25:57;13.20;;;6.57;;
50161;SDS011;36061;48.116;11.612;2022-12-18T11:28:27;18.70;;;8.13;;
50161;SDS011;36061;48.116;11.612;2022-12-18T11:33:42;13.33;;;7.77;;
50161;SDS011;36061;48.116;11.612;2022-12-18T11:36:34;19.80;;;8.40;;
50161;SDS011;36061;48.116;11.612;2022-12-18T11:41:59;15.63;;;8.10;;
50161;SDS011;36061;48.116;11.612;2022-12-18T11:44:57;14.60;;;7.23;;
50161;SDS011;36061;48.116;11.612;2022-12-18T11:50:21;16.87;;;7.97;;
50161;SDS011;36061;48.116;11.612;2022-12-18T11:52:50;16.23;;;7.60;;
50161;SDS011;36061;48.116;11.612;2022-12-18T11:55:22;16.27;;;8.17;;
50161;SDS011;36061;48.116;11.612;2022-12-18T12:00:52;13.60;;;7.30;;
50161;SDS011;36061;48.116;11.612;2022-12-18T12:04:09;13.10;;;6.67;;
50161;SDS011;36061;48.116;11.612;2022-12-18T12:09:11;16.03;;;8.93;;
50161;SDS011;36061;48.116;11.612;2022-12-18T12:17:34;13.33;;;6.87;;
50161;SDS011;36061;48.116;11.612;2022-12-18T12:20:15;15.23;;;6.07;;
50161;SDS011;36061;48.116;11.612;2022-12-18T12:22:55;17.40;;;7.87;;
50161;SDS011;36061;48.116;11.612;2022-12-18T12:33:36;13.30;;;6.90;;
50161;SDS011;36061;48.116;11.612;2022-12-18T12:39:05;16.43;;;7.27;;
50161;SDS011;36061;48.116;11.612;2022-12-18T12:41:36;14.73;;;7.57;;
50161;SDS011;36061;48.116;11.612;2022-12-18T12:44:28;16.10;;;7.00;;
50161;SDS011;36061;48.116;11.612;2022-12-18T12:47:13;14.07;;;6.97;;
50161;SDS011;36061;48.116;11.612;2022-12-18T12:49:52;15.83;;;7.37;;
50161;SDS011;36061;48.116;11.612;2022-12-18T12:54:54;15.20;;;7.27;;
50161;SDS011;36061;48.116;11.612;2022-12-18T12:57:22;15.53;;;7.03;;
50161;SDS011;36061;48.116;11.612;2022-12-18T13:00:03;13.13;;;7.10;;
50161;SDS011;36061;48.116;11.612;2022-12-18T13:07:59;16.37;;;7.40;;
50161;SDS011;36061;48.116;11.612;2022-12-18T13:10:32;16.83;;;7.37;;
50161;SDS011;36061;48.116;11.612;2022-12-18T13:20:43;12.60;;;6.17;;
50161;SDS011;36061;48.116;11.612;2022-12-18T13:25:51;12.07;;;6.50;;
50161;SDS011;36061;48.116;11.612;2022-12-18T13:28:22;16.43;;;7.20;;
50161;SDS011;36061;48.116;11.612;2022-12-18T13:30:58;16.30;;;7.03;;
50161;SDS011;36061;48.116;11.612;2022-12-18T13:35:51;14.97;;;7.00;;
50161;SDS011;36061;48.116;11.612;2022-12-18T13:40:57;20.30;;;8.47;;
50161;SDS011;36061;48.116;11.612;2022-12-18T13:43:25;14.67;;;7.00;;
50161;SDS011;36061;48.116;11.612;2022-12-18T13:45:59;16.30;;;7.30;;
50161;SDS011;36061;48.116;11.612;2022-12-18T13:48:47;15.30;;;7.70;;
50161;SDS011;36061;48.116;11.612;2022-12-18T13:51:20;18.50;;;8.57;;
50161;SDS011;36061;48.116;11.612;2022-12-18T13:53:51;17.07;;;6.67;;
50161;SDS011;36061;48.116;11.612;2022-12-18T13:56:42;17.63;;;7.67;;
50161;SDS011;36061;48.116;11.612;2022-12-18T14:01:51;17.23;;;6.80;;
50161;SDS011;36061;48.116;11.612;2022-12-18T14:04:29;16.23;;;6.70;;
50161;SDS011;36061;48.116;11.612;2022-12-18T14:07:06;16.53;;;7.47;;
50161;SDS011;36061;48.116;11.612;2022-12-18T14:09:39;18.17;;;8.13;;
50161;SDS011;36061;48.116;11.612;2022-12-18T14:12:17;16.60;;;7.40;;
50161;SDS011;36061;48.116;11.612;2022-12-18T14:15:03;17.63;;;8.07;;
50161;SDS011;36061;48.116;11.612;2022-12-18T14:17:31;16.83;;;8.00;;
50161;SDS011;36061;48.116;11.612;2022-12-18T14:19:57;21.27;;;6.90;;
50161;SDS011;36061;48.116;11.612;2022-12-18T14:22:24;18.27;;;8.23;;
50161;SDS011;36061;48.116;11.612;2022-12-18T14:27:52;17.67;;;7.27;;
50161;SDS011;36061;48.116;11.612;2022-12-18T14:30:41;17.83;;;8.37;;
50161;SDS011;36061;48.116;11.612;2022-12-18T14:33:16;17.17;;;7.77;;
50161;SDS011;36061;48.116;11.612;2022-12-18T14:35:54;13.73;;;7.00;;
50161;SDS011;36061;48.116;11.612;2022-12-18T14:38:32;16.67;;;7.73;;
50161;SDS011;36061;48.116;11.612;2022-12-18T14:41:04;17.37;;;8.53;;
50161;SDS011;36061;48.116;11.612;2022-12-18T14:43:45;13.93;;;7.90;;
50161;SDS011;36061;48.116;11.612;2022-12-18T14:48:52;14.30;;;7.43;;
50161;SDS011;36061;48.116;11.612;2022-12-18T14:51:20;19.30;;;7.97;;
50161;SDS011;36061;48.116;11.612;2022-12-18T14:53:57;20.07;;;8.97;;
50161;SDS011;36061;48.116;11.612;2022-12-18T14:56:35;15.27;;;8.43;;
50161;SDS011;36061;48.116;11.612;2022-12-18T14:59:14;16.40;;;8.67;;
50161;SDS011;36061;48.116;11.612;2022-12-18T15:01:46;18.43;;;8.17;;
50161;SDS011;36061;48.116;11.612;2022-12-18T15:04:34;15.30;;;7.30;;
50161;SDS011;36061;48.116;11.612;2022-12-18T15:09:39;15.70;;;7.37;;
50161;SDS011;36061;48.116;11.612;2022-12-18T15:15:43;18.30;;;7.83;;
50161;SDS011;36061;48.116;11.612;2022-12-18T15:17:58;13.93;;;7.10;;
50161;SDS011;36061;48.116;11.612;2022-12-18T15:26:06;15.97;;;7.20;;
50161;SDS011;36061;48.116;11.612;2022-12-18T15:28:37;18.90;;;8.47;;
50161;SDS011;36061;48.116;11.612;2022-12-18T15:36:08;15.07;;;7.47;;
50161;SDS011;36061;48.116;11.612;2022-12-18T15:38:36;19.27;;;8.20;;
50161;SDS011;36061;48.116;11.612;2022-12-18T15:41:02;15.27;;;6.90;;
50161;SDS011;36061;48.116;11.612;2022-12-18T15:43:33;17.13;;;7.27;;
50161;SDS011;36061;48.116;11.612;2022-12-18T15:46:10;23.27;;;7.47;;
50161;SDS011;36061;48.116;11.612;2022-12-18T15:48:42;15.50;;;8.03;;
50161;SDS011;36061;48.116;11.612;2022-12-18T15:51:17;19.43;;;8.87;;
50161;SDS011;36061;48.116;11.612;2022-12-18T15:53:45;17.23;;;8.13;;
50161;SDS011;36061;48.116;11.612;2022-12-18T15:56:16;20.40;;;8.07;;
50161;SDS011;36061;48.116;11.612;2022-12-18T15:59:12;16.17;;;9.07;;
50161;SDS011;36061;48.116;11.612;2022-12-18T16:01:39;19.87;;;8.20;;
50161;SDS011;36061;48.116;11.612;2022-12-18T16:04:06;17.13;;;7.80;;
50161;SDS011;36061;48.116;11.612;2022-12-18T16:06:34;14.90;;;7.50;;
50161;SDS011;36061;48.116;11.612;2022-12-18T16:09:00;16.37;;;8.37;;
50161;SDS011;36061;48.116;11.612;2022-12-18T16:11:30;21.20;;;8.37;;
50161;SDS011;36061;48.116;11.612;2022-12-18T16:14:04;19.00;;;9.37;;
50161;SDS011;36061;48.116;11.612;2022-12-18T16:16:33;16.33;;;8.17;;
50161;SDS011;36061;48.116;11.612;2022-12-18T16:19:00;17.27;;;8.43;;
50161;SDS011;36061;48.116;11.612;2022-12-18T16:21:26;17.87;;;8.47;;
50161;SDS011;36061;48.116;11.612;2022-12-18T16:23:52;23.53;;;8.23;;
50161;SDS011;36061;48.116;11.612;2022-12-18T16:26:17;19.07;;;9.60;;
50161;SDS011;36061;48.116;11.612;2022-12-18T16:28:43;16.43;;;6.83;;
50161;SDS011;36061;48.116;11.612;2022-12-18T16:31:09;15.60;;;7.90;;
50161;SDS011;36061;48.116;11.612;2022-12-18T16:33:35;20.60;;;9.60;;
50161;SDS011;36061;48.116;11.612;2022-12-18T16:36:00;15.60;;;8.30;;
50161;SDS011;36061;48.116;11.612;2022-12-18T16:38:27;17.90;;;8.23;;
50161;SDS011;36061;48.116;11.612;2022-12-18T16:40:53;21.57;;;9.03;;
50161;SDS011;36061;48.116;11.612;2022-12-18T16:43:37;19.47;;;9.47;;
50161;SDS011;36061;48.116;11.612;2022-12-18T16:46:03;17.47;;;8.27;;
50161;SDS011;36061;48.116;11.612;2022-12-18T16:48:29;18.20;;;7.97;;
50161;SDS011;36061;48.116;11.612;2022-12-18T16:51:01;15.57;;;8.03;;
50161;SDS011;36061;48.116;11.612;2022-12-18T16:53:29;21.87;;;9.70;;
50161;SDS011;36061;48.116;11.612;2022-12-18T16:55:56;21.53;;;9.40;;
50161;SDS011;36061;48.116;11.612;2022-12-18T16:58:23;14.20;;;7.83;;